PDT,Max TemperatureF,Mean TemperatureF,Min TemperatureF,Max Dew PointF,MeanDew PointF,Min DewpointF,Max Humidity, Mean Humidity, Min Humidity, Max Sea Level PressureIn, Mean Sea Level PressureIn, Min Sea Level PressureIn, Max VisibilityMiles, Mean VisibilityMiles, Min VisibilityMiles, Max Wind SpeedMPH, Mean Wind SpeedMPH, Max Gust SpeedMPH,PrecipitationIn, CloudCover, Events, WindDirDegrees
2013-4-1,66,58,50,54,50,46,100,77,49,30.16,30.12,30.09,10,10,6,16,3,,0.00,5,Rain-Thunderstorm,215
2013-4-2,71,56,42,54,48,43,100,78,41,30.17,30.13,30.06,10,10,10,9,4,,0.00,2,,301
2013-4-3,73,58,44,54,49,45,100,77,41,30.13,30.07,29.97,10,10,10,6,3,,0.00,3,,125
2013-4-4,64,57,48,57,51,39,100,87,45,30.12,30.08,29.98,10,7,2,13,8,,0.00,6,Rain,156
2013-4-5,66,56,46,52,49,46,100,77,52,30.16,30.14,30.10,10,10,10,9,5,,0.00,5,,167
2013-4-6,64,55,46,54,50,46,100,85,64,30.19,30.15,30.09,10,10,10,9,7,,0.00,7,,152
2013-4-7,64,55,46,52,48,43,100,72,56,30.11,30.02,29.87,10,10,10,23,10,28,0.00,4,,185
2013-4-8,66,56,46,39,32,27,71,39,23,29.99,29.89,29.78,10,10,10,28,19,40,0.00,1,,323
2013-4-9,73,60,46,37,33,30,58,38,22,30.07,30.04,30.01,10,10,10,23,16,31,0.00,0,,328
2013-4-10,82,66,50,55,43,32,88,48,26,30.18,30.07,29.96,10,10,10,12,7,,0.00,1,,313
2013-4-11,75,60,46,52,44,36,100,58,25,29.98,29.91,29.81,10,10,10,14,6,20,0.00,1,,338
2013-4-12,78,60,42,54,45,32,93,68,18,29.89,29.83,29.78,10,10,10,8,4,,0.00,1,,154
2013-4-13,73,58,44,52,46,41,88,71,41,29.88,29.82,29.77,10,10,10,8,5,,0.00,2,,152
2013-4-14,71,55,39,46,35,25,100,41,19,29.89,29.80,29.73,10,10,10,24,8,25,0.00,2,,236
2013-4-15,59,49,39,45,41,32,100,72,45,29.90,29.86,29.80,10,10,7,16,6,24,0.00,5,Rain,149
2013-4-16,66,54,41,32,27,16,70,39,18,30.14,30.03,29.92,10,10,10,24,14,31,0.00,1,,338
2013-4-17,68,55,42,28,24,18,57,33,17,30.24,30.20,30.16,10,10,10,23,14,32,0.00,0,,328
2013-4-18,73,54,35,50,30,21,81,42,14,30.27,30.22,30.17,10,10,10,8,3,,0.00,0,,281
2013-4-19,78,60,41,48,41,37,87,54,23,30.24,30.16,30.04,10,10,10,7,4,,0.00,2,,148
2013-4-20,82,68,53,41,34,19,58,34,10,30.09,30.03,29.94,10,10,10,15,9,21,0.00,0,,319
2013-4-21,84,65,46,46,40,34,81,41,17,30.03,29.97,29.91,10,10,10,10,3,,0.00,0,,320
2013-4-22,86,70,53,46,34,25,72,28,11,29.96,29.88,29.82,10,10,10,17,9,24,0.00,0,,320
2013-4-23,82,68,48,43,28,23,82,27,11,29.92,29.87,29.81,10,10,10,21,14,25,0.00,0,,308
2013-4-24,86,64,41,48,38,23,87,51,10,29.87,29.81,29.73,10,10,10,17,5,18,0.00,0,,252
2013-4-25,73,60,46,50,46,45,100,67,36,30.09,29.99,29.89,10,10,10,12,9,17,0.00,1,,158
2013-4-26,80,61,42,50,47,43,100,72,32,30.20,30.14,30.10,10,10,10,9,6,,0.00,0,,161
2013-4-27,86,65,44,54,48,43,100,63,25,30.21,30.13,30.02,10,10,10,8,4,,0.00,0,,207
2013-4-28,89,68,48,50,45,39,93,42,19,30.03,29.93,29.85,10,10,10,9,3,,0.00,0,,301
2013-4-29,89,73,57,50,42,36,77,34,15,29.88,29.80,29.72,10,10,10,16,8,21,0.00,3,,327
2013-4-30,82,71,60,46,28,16,49,22,9,29.81,29.78,29.74,10,10,9,21,10,28,0.00,2,,320